createdAt,value
2022-10-29T00:00:16.333Z,88.22
2022-10-29T00:02:42.966Z,88.40
2022-10-29T00:05:09.699Z,88.22
2022-10-29T00:07:36.327Z,88.22
2022-10-29T00:10:03.509Z,88.41
2022-10-29T00:12:30.141Z,88.88
2022-10-29T00:14:56.826Z,88.86
2022-10-29T00:17:23.468Z,88.69
2022-10-29T00:19:50.128Z,89.13
2022-10-29T00:22:16.731Z,89.28
2022-10-29T00:24:43.333Z,89.21
2022-10-29T00:27:09.946Z,89.78
2022-10-29T00:29:36.567Z,89.41
2022-10-29T00:32:03.260Z,89.33
2022-10-29T00:34:30.007Z,89.69
2022-10-29T00:36:56.595Z,89.51
2022-10-29T00:39:23.310Z,89.20
2022-10-29T00:41:50.010Z,89.55
2022-10-29T00:44:20.608Z,89.47
2022-10-29T00:46:53.128Z,89.61
2022-10-29T00:49:20.243Z,90.17
2022-10-29T00:51:47.823Z,89.88
2022-10-29T00:54:15.381Z,90.37
2022-10-29T00:56:53.101Z,90.42
2022-10-29T00:59:19.841Z,90.25
2022-10-29T01:01:48.951Z,90.10
2022-10-29T01:04:17.316Z,90.37
2022-10-29T01:06:44.947Z,90.17
2022-10-29T01:09:11.558Z,90.66
2022-10-29T01:11:59.847Z,90.98
2022-10-29T01:14:29.285Z,90.79
2022-10-29T01:16:58.541Z,91.46
2022-10-29T01:19:34.524Z,91.11
2022-10-29T01:22:04.018Z,91.25
2022-10-29T01:24:55.388Z,91.05
2022-10-29T01:27:46.811Z,91.82
2022-10-29T01:30:21.106Z,91.29
2022-10-29T01:33:15.725Z,91.75
2022-10-29T01:36:10.319Z,91.58
2022-10-29T01:38:42.578Z,92.27
2022-10-29T01:41:17.108Z,91.87
2022-10-29T01:43:51.381Z,92.22
2022-10-29T01:46:22.558Z,92.11
2022-10-29T01:48:51.697Z,92.37
2022-10-29T01:51:28.196Z,92.86
2022-10-29T01:53:55.763Z,92.59
2022-10-29T01:56:22.349Z,93.16
2022-10-29T01:58:51.010Z,92.74
2022-10-29T02:01:54.797Z,92.96
2022-10-29T02:04:32.601Z,92.86
2022-10-29T02:07:02.130Z,92.80
2022-10-29T02:09:43.416Z,93.27
2022-10-29T02:12:18.590Z,93.35
2022-10-29T02:14:49.378Z,93.03
2022-10-29T02:17:16.132Z,93.31
2022-10-29T02:19:42.779Z,93.34
2022-10-29T02:22:09.430Z,93.49
2022-10-29T02:24:36.046Z,93.60
2022-10-29T02:27:02.744Z,94.12
2022-10-29T02:29:29.359Z,94.49
2022-10-29T02:31:55.971Z,94.20
2022-10-29T02:34:22.607Z,94.36
2022-10-29T02:36:49.203Z,94.41
2022-10-29T02:39:15.783Z,94.30
2022-10-29T02:41:42.402Z,94.50
2022-10-29T02:44:09.020Z,94.63
2022-10-29T02:46:39.871Z,94.47
2022-10-29T02:49:07.707Z,94.75
2022-10-29T02:51:34.377Z,94.63
2022-10-29T02:54:01.047Z,94.52
2022-10-29T02:56:27.671Z,94.55
2022-10-29T02:58:54.267Z,94.74
2022-10-29T03:01:20.880Z,94.74
2022-10-29T03:03:50.462Z,94.81
2022-10-29T03:06:18.854Z,95.22
2022-10-29T03:08:46.107Z,95.08
2022-10-29T03:11:13.003Z,95.07
2022-10-29T03:13:39.782Z,94.91
2022-10-29T03:16:06.396Z,95.13
2022-10-29T03:18:33.014Z,95.02
2022-10-29T03:20:59.573Z,95.51
2022-10-29T03:23:26.251Z,95.28
2022-10-29T03:25:55.858Z,95.47
2022-10-29T03:28:24.134Z,95.35
2022-10-29T03:30:50.780Z,95.49
2022-10-29T03:33:17.373Z,95.58
2022-10-29T03:35:44.087Z,95.86
2022-10-29T03:38:10.682Z,95.85
2022-10-29T03:40:37.246Z,95.88
2022-10-29T03:43:03.842Z,96.07
2022-10-29T03:45:30.467Z,95.98
2022-10-29T03:47:57.650Z,95.90
2022-10-29T03:50:24.653Z,96.16
2022-10-29T03:52:51.262Z,95.86
2022-10-29T03:55:17.965Z,96.28
2022-10-29T03:57:44.551Z,96.28
2022-10-29T04:00:11.616Z,96.17
2022-10-29T04:02:38.250Z,96.22
2022-10-29T04:05:05.172Z,95.94
2022-10-29T04:07:31.759Z,96.15
2022-10-29T04:09:58.329Z,96.18
2022-10-29T04:12:24.957Z,96.51
2022-10-29T04:17:18.015Z,95.84
2022-10-29T04:19:44.717Z,96.48
2022-10-29T04:28:41.456Z,96.38
2022-10-29T04:30:31.421Z,96.22
2022-10-29T04:32:59.997Z,96.87
2022-10-29T04:35:29.347Z,96.11
2022-10-29T04:37:55.951Z,96.75
2022-10-29T04:40:25.647Z,96.62
2022-10-29T04:42:52.334Z,96.80
2022-10-29T04:45:19.020Z,96.83
2022-10-29T04:47:46.152Z,96.61
2022-10-29T04:50:12.748Z,96.71
2022-10-29T04:52:39.836Z,96.40
2022-10-29T04:55:06.701Z,96.30
2022-10-29T04:57:33.350Z,96.09
2022-10-29T04:59:59.952Z,96.82
2022-10-29T05:02:26.563Z,96.74
2022-10-29T05:04:53.141Z,96.39
2022-10-29T05:07:19.778Z,96.10
2022-10-29T05:09:46.430Z,96.38
2022-10-29T05:12:13.037Z,96.10
2022-10-29T05:14:39.607Z,96.39
2022-10-29T05:19:33.863Z,96.42
2022-10-29T05:22:00.627Z,96.24
2022-10-29T05:24:27.329Z,96.30
2022-10-29T05:26:53.915Z,96.39
2022-10-29T05:29:20.551Z,96.09
2022-10-29T05:31:47.142Z,95.92
2022-10-29T05:34:13.710Z,95.98
2022-10-29T05:36:40.318Z,95.83
2022-10-29T05:39:06.955Z,95.59
2022-10-29T05:41:33.598Z,96.03
2022-10-29T05:44:00.475Z,95.56
2022-10-29T05:46:27.084Z,95.77
2022-10-29T05:48:53.712Z,96.00
2022-10-29T05:51:20.432Z,95.64
2022-10-29T05:53:47.888Z,95.95
2022-10-29T05:56:14.487Z,96.07
2022-10-29T05:58:41.192Z,95.62
2022-10-29T06:01:09.177Z,95.49
2022-10-29T06:03:36.149Z,95.75
2022-10-29T06:06:07.989Z,95.72
2022-10-29T06:08:40.607Z,96.04
2022-10-29T06:11:07.250Z,95.50
2022-10-29T06:13:34.080Z,95.57
2022-10-29T06:16:01.079Z,95.21
2022-10-29T06:18:27.964Z,95.13
2022-10-29T06:20:57.353Z,95.31
2022-10-29T06:23:23.947Z,94.97
2022-10-29T06:25:50.571Z,95.09
2022-10-29T06:28:19.224Z,95.04
2022-10-29T06:30:48.437Z,94.63
2022-10-29T06:33:16.227Z,95.00
2022-10-29T06:35:42.873Z,94.74
2022-10-29T06:38:12.440Z,94.79
2022-10-29T06:40:40.201Z,94.61
2022-10-29T06:43:09.607Z,94.25
2022-10-29T06:45:36.448Z,94.69
2022-10-29T06:48:05.217Z,94.45
2022-10-29T06:50:32.074Z,94.08
2022-10-29T06:53:00.871Z,94.25
2022-10-29T06:55:28.241Z,94.45
2022-10-29T06:58:03.013Z,94.03
2022-10-29T07:00:30.663Z,93.91
2022-10-29T07:02:58.120Z,94.04
2022-10-29T07:05:25.555Z,94.24
2022-10-29T07:07:57.148Z,94.11
2022-10-29T07:10:25.470Z,94.12
2022-10-29T07:12:52.323Z,94.16
2022-10-29T07:15:19.100Z,94.11
2022-10-29T07:18:00.028Z,94.33
2022-10-29T07:20:31.739Z,93.59
2022-10-29T07:22:59.441Z,93.54
2022-10-29T07:25:26.554Z,93.34
2022-10-29T07:27:53.316Z,92.80
2022-10-29T07:30:20.658Z,92.69
2022-10-29T07:32:47.298Z,92.17
2022-10-29T07:35:14.087Z,92.07
2022-10-29T07:37:40.657Z,91.69
2022-10-29T07:40:08.136Z,90.95
2022-10-29T07:42:34.695Z,90.76
2022-10-29T07:45:01.307Z,90.74
2022-10-29T07:47:27.951Z,90.46
2022-10-29T07:49:56.593Z,89.99
2022-10-29T07:52:23.284Z,90.05
2022-10-29T07:54:49.918Z,89.41
2022-10-29T07:57:16.555Z,88.94
2022-10-29T07:59:43.252Z,88.91
2022-10-29T08:02:10.974Z,88.74
2022-10-29T08:04:37.670Z,88.71
2022-10-29T08:07:04.431Z,88.44
2022-10-29T08:09:31.180Z,87.78
2022-10-29T08:11:57.774Z,87.87
2022-10-29T08:14:24.455Z,87.92
2022-10-29T08:16:53.807Z,87.41
2022-10-29T08:19:20.723Z,87.08
2022-10-29T08:21:47.370Z,87.24
2022-10-29T08:24:14.100Z,86.71
2022-10-29T08:26:40.937Z,86.56
2022-10-29T08:29:07.925Z,86.61
2022-10-29T08:31:34.616Z,86.67
2022-10-29T08:34:01.387Z,86.76
2022-10-29T08:36:28.072Z,86.14
2022-10-29T08:38:54.681Z,86.43
2022-10-29T08:41:32.513Z,86.12
2022-10-29T08:43:59.108Z,86.01
2022-10-29T08:46:45.706Z,85.49
2022-10-29T08:49:17.862Z,85.48
2022-10-29T08:51:50.013Z,84.92
2022-10-29T08:54:30.384Z,84.59
2022-10-29T08:56:59.778Z,84.83
2022-10-29T08:59:29.692Z,84.41
2022-10-29T09:01:56.704Z,83.80
2022-10-29T09:04:24.897Z,83.91
2022-10-29T09:06:54.498Z,83.85
2022-10-29T09:09:44.643Z,83.64
2022-10-29T09:12:34.236Z,83.51
2022-10-29T09:15:13.659Z,83.00
2022-10-29T09:18:00.256Z,82.99
2022-10-29T09:20:56.660Z,82.88
2022-10-29T09:23:30.431Z,82.88
2022-10-29T09:26:05.258Z,82.52
2022-10-29T09:29:01.316Z,82.09
2022-10-29T09:31:49.402Z,82.06
2022-10-29T09:34:28.264Z,81.81
2022-10-29T09:36:55.840Z,81.63
2022-10-29T09:39:34.233Z,81.64
2022-10-29T09:42:02.091Z,81.16
2022-10-29T09:44:51.887Z,80.53
2022-10-29T09:48:23.288Z,80.33
2022-10-29T09:50:49.854Z,80.75
2022-10-29T09:53:16.494Z,80.30
2022-10-29T09:55:45.262Z,80.11
2022-10-29T09:58:21.022Z,79.88
2022-10-29T10:00:47.687Z,80.11
2022-10-29T10:03:30.587Z,79.73
2022-10-29T10:06:03.624Z,79.58
2022-10-29T10:08:31.817Z,79.62
2022-10-29T10:11:04.878Z,78.90
2022-10-29T10:13:36.583Z,79.02
2022-10-29T10:16:06.245Z,78.74
2022-10-29T10:18:32.862Z,77.95
2022-10-29T10:21:32.737Z,77.66
2022-10-29T10:24:00.457Z,77.32
2022-10-29T10:26:39.469Z,76.26
2022-10-29T10:29:19.027Z,75.80
2022-10-29T10:31:47.631Z,74.48
2022-10-29T10:34:24.853Z,71.61
2022-10-29T10:36:56.471Z,68.98
2022-10-29T10:39:44.132Z,68.60
2022-10-29T10:42:21.706Z,67.24
2022-10-29T10:44:59.178Z,66.06
2022-10-29T10:47:28.744Z,63.96
2022-10-29T10:50:10.644Z,62.85
2022-10-29T10:52:37.504Z,62.61
2022-10-29T10:55:23.030Z,63.38
2022-10-29T10:57:56.482Z,64.67
2022-10-29T11:00:23.742Z,65.02
2022-10-29T11:03:16.891Z,65.14
2022-10-29T11:05:50.332Z,63.20
2022-10-29T11:08:24.604Z,60.99
2022-10-29T11:10:54.173Z,58.44
2022-10-29T11:13:40.258Z,56.49
2022-10-29T11:16:17.971Z,54.77
2022-10-29T11:19:14.109Z,53.43
2022-10-29T11:21:46.132Z,52.11
2022-10-29T11:24:30.139Z,51.12
2022-10-29T11:27:09.552Z,50.77
2022-10-29T11:29:49.248Z,51.05
2022-10-29T11:32:28.425Z,51.69
2022-10-29T11:35:07.329Z,51.74
2022-10-29T11:38:03.354Z,51.31
2022-10-29T11:40:50.785Z,51.89
2022-10-29T11:43:19.832Z,51.78
2022-10-29T11:46:00.155Z,52.16
2022-10-29T11:48:42.143Z,52.24
2022-10-29T11:51:30.390Z,53.51
2022-10-29T11:54:42.097Z,54.26
2022-10-29T11:57:23.416Z,54.93
2022-10-29T11:59:49.936Z,55.41
2022-10-29T12:02:34.589Z,55.74
2022-10-29T12:05:24.160Z,56.29
2022-10-29T12:08:00.059Z,56.88
2022-10-29T12:10:38.040Z,57.57
2022-10-29T12:13:26.414Z,57.77
2022-10-29T12:16:20.095Z,58.27
2022-10-29T12:18:55.403Z,57.44
2022-10-29T12:21:41.965Z,56.44
2022-10-29T12:24:30.692Z,55.86
2022-10-29T12:27:09.412Z,55.62
2022-10-29T12:30:04.059Z,55.49
2022-10-29T12:32:49.417Z,55.69
2022-10-29T12:35:28.916Z,55.85
2022-10-29T12:38:01.705Z,55.42
2022-10-29T12:40:31.545Z,54.55
2022-10-29T12:43:03.258Z,53.98
2022-10-29T12:45:34.932Z,53.63
2022-10-29T12:48:27.345Z,53.26
2022-10-29T12:51:01.953Z,52.71
2022-10-29T12:53:35.633Z,52.90
2022-10-29T12:56:04.266Z,53.23
2022-10-29T12:58:46.153Z,53.54
2022-10-29T13:01:49.915Z,54.17
2022-10-29T13:04:31.159Z,54.78
2022-10-29T13:06:59.661Z,55.24
2022-10-29T13:09:48.281Z,55.13
2022-10-29T13:12:53.609Z,55.96
2022-10-29T13:15:21.569Z,56.41
2022-10-29T13:17:49.411Z,55.95
2022-10-29T13:20:30.598Z,56.00
2022-10-29T13:23:04.070Z,55.83
2022-10-29T13:25:33.515Z,56.17
2022-10-29T13:28:09.263Z,56.83
2022-10-29T13:30:41.665Z,56.17
2022-10-29T13:33:20.550Z,57.03
2022-10-29T13:36:00.237Z,57.05
2022-10-29T13:39:05.619Z,57.33
2022-10-29T13:41:42.805Z,58.44
2022-10-29T13:44:10.094Z,58.33
2022-10-29T13:46:48.179Z,58.39
2022-10-29T13:49:26.475Z,57.41
2022-10-29T13:51:56.439Z,57.24
2022-10-29T13:56:59.295Z,57.61
2022-10-29T13:59:35.833Z,58.59
2022-10-29T14:02:39.713Z,58.36
2022-10-29T14:05:13.116Z,58.83
2022-10-29T14:08:04.274Z,58.46
2022-10-29T14:10:40.081Z,57.67
2022-10-29T14:13:25.017Z,57.88
2022-10-29T14:16:06.996Z,57.92
2022-10-29T14:18:38.389Z,57.95
2022-10-29T14:21:16.509Z,58.26
2022-10-29T14:24:05.138Z,58.76
2022-10-29T14:26:39.707Z,59.42
2022-10-29T14:29:14.520Z,59.69
2022-10-29T14:31:41.117Z,60.57
2022-10-29T14:34:22.556Z,61.30
2022-10-29T14:37:08.550Z,61.82
2022-10-29T14:39:55.566Z,62.12
2022-10-29T14:42:32.575Z,62.14
2022-10-29T14:45:21.442Z,62.56
2022-10-29T14:47:51.172Z,62.42
2022-10-29T14:50:22.076Z,62.91
2022-10-29T14:52:54.499Z,63.49
2022-10-29T14:55:27.720Z,63.98
2022-10-29T14:58:03.542Z,63.99
2022-10-29T15:00:32.161Z,64.77
2022-10-29T15:03:06.432Z,64.48
2022-10-29T15:05:36.246Z,64.62
2022-10-29T15:08:16.290Z,64.66
2022-10-29T15:10:46.207Z,65.36
2022-10-29T15:13:29.433Z,64.93
2022-10-29T15:16:05.347Z,65.55
2022-10-29T15:18:33.629Z,65.68
2022-10-29T15:21:00.601Z,66.08
2022-10-29T15:23:36.941Z,66.22
2022-10-29T15:26:06.706Z,66.15
2022-10-29T15:28:44.783Z,66.40
2022-10-29T15:31:21.788Z,66.06
2022-10-29T15:33:51.457Z,66.26
2022-10-29T15:36:18.100Z,66.70
2022-10-29T15:38:52.110Z,66.42
2022-10-29T15:41:45.584Z,66.34
2022-10-29T15:44:34.310Z,66.68
2022-10-29T15:47:03.260Z,65.97
2022-10-29T15:49:32.609Z,66.19
2022-10-29T15:52:00.561Z,66.28
2022-10-29T15:54:28.039Z,66.26
2022-10-29T15:56:54.684Z,66.08
2022-10-29T15:59:25.156Z,65.74
2022-10-29T16:01:56.969Z,65.63
2022-10-29T16:04:23.649Z,66.02
2022-10-29T16:06:50.219Z,65.86
2022-10-29T16:09:19.966Z,65.89
2022-10-29T16:11:46.620Z,66.01
2022-10-29T16:14:13.445Z,66.25
2022-10-29T16:16:40.183Z,66.30
2022-10-29T16:19:11.947Z,66.03
2022-10-29T16:21:38.703Z,66.13
2022-10-29T16:24:05.935Z,66.09
2022-10-29T16:26:32.600Z,66.52
2022-10-29T16:28:59.248Z,66.37
2022-10-29T16:31:27.749Z,66.21
2022-10-29T16:33:57.422Z,65.82
2022-10-29T16:36:24.513Z,66.15
2022-10-29T16:38:51.116Z,66.16
2022-10-29T16:41:18.947Z,65.98
2022-10-29T16:43:45.779Z,66.09
2022-10-29T16:46:12.998Z,66.41
2022-10-29T16:48:39.944Z,66.16
2022-10-29T16:51:06.844Z,66.24
2022-10-29T16:53:33.545Z,66.36
2022-10-29T16:56:00.205Z,66.45
2022-10-29T16:58:26.928Z,66.20
2022-10-29T17:01:05.094Z,66.01
2022-10-29T17:03:33.281Z,66.39
2022-10-29T17:06:08.306Z,66.53
2022-10-29T17:08:35.674Z,66.51
2022-10-29T17:11:04.391Z,66.62
2022-10-29T17:13:31.106Z,65.93
2022-10-29T17:15:58.148Z,65.77
2022-10-29T17:18:24.913Z,65.80
2022-10-29T17:20:58.978Z,65.65
2022-10-29T17:23:25.922Z,66.35
2022-10-29T17:25:54.557Z,66.18
2022-10-29T17:28:25.101Z,65.85
2022-10-29T17:30:51.760Z,65.75
2022-10-29T17:33:19.112Z,66.39
2022-10-29T17:35:46.004Z,65.80
2022-10-29T17:38:12.796Z,65.74
2022-10-29T17:40:39.498Z,65.64
2022-10-29T17:43:06.571Z,65.35
2022-10-29T17:45:33.263Z,65.45
2022-10-29T17:48:08.387Z,65.65
2022-10-29T17:50:57.386Z,65.71
2022-10-29T17:53:35.099Z,65.56
2022-10-29T17:56:34.917Z,65.21
2022-10-29T17:59:19.173Z,65.23
2022-10-29T18:02:37.433Z,64.97
2022-10-29T18:05:58.830Z,65.60
2022-10-29T18:08:21.588Z,64.60
2022-10-29T18:10:56.194Z,65.11
2022-10-29T18:13:28.441Z,64.52
2022-10-29T18:16:02.768Z,64.74
2022-10-29T18:19:00.661Z,64.51
2022-10-29T18:21:29.479Z,64.52
2022-10-29T18:23:56.208Z,64.15
2022-10-29T18:26:30.842Z,64.02
2022-10-29T18:28:58.960Z,63.99
2022-10-29T18:31:28.072Z,63.75
2022-10-29T18:33:55.192Z,63.54
2022-10-29T18:36:21.887Z,63.40
2022-10-29T18:38:52.850Z,63.64
2022-10-29T18:41:19.625Z,63.44
2022-10-29T18:43:46.600Z,63.10
2022-10-29T18:46:13.827Z,62.90
2022-10-29T18:48:42.718Z,62.77
2022-10-29T18:51:15.143Z,62.81
2022-10-29T18:53:41.865Z,62.06
2022-10-29T18:56:13.324Z,62.17
2022-10-29T18:58:40.716Z,61.99
2022-10-29T19:01:12.880Z,62.21
2022-10-29T19:03:40.209Z,62.06
2022-10-29T19:06:11.143Z,61.70
2022-10-29T19:08:39.676Z,61.88
2022-10-29T19:11:08.859Z,61.27
2022-10-29T19:13:35.770Z,61.08
2022-10-29T19:16:04.241Z,61.23
2022-10-29T19:18:31.664Z,61.35
2022-10-29T19:21:02.810Z,60.80
2022-10-29T19:23:29.506Z,61.17
2022-10-29T19:25:56.517Z,60.86
2022-10-29T19:28:23.699Z,60.62
2022-10-29T19:30:50.388Z,61.08
2022-10-29T19:33:17.023Z,60.38
2022-10-29T19:35:45.936Z,60.42
2022-10-29T19:38:14.633Z,60.38
2022-10-29T19:40:44.411Z,60.43
2022-10-29T19:43:12.590Z,60.71
2022-10-29T19:45:47.857Z,60.25
2022-10-29T19:48:14.779Z,59.79
2022-10-29T19:50:41.434Z,59.78
2022-10-29T19:53:08.280Z,59.71
2022-10-29T19:55:35.047Z,59.83
2022-10-29T19:58:01.775Z,59.18
2022-10-29T20:00:28.588Z,59.74
2022-10-29T20:02:55.657Z,58.83
2022-10-29T20:05:22.652Z,59.38
2022-10-29T20:07:49.404Z,59.18
2022-10-29T20:10:17.455Z,59.20
2022-10-29T20:12:47.212Z,58.84
2022-10-29T20:15:13.970Z,58.88
2022-10-29T20:17:40.876Z,58.66
2022-10-29T20:20:10.546Z,58.69
2022-10-29T20:22:39.844Z,58.75
2022-10-29T20:25:06.904Z,58.76
2022-10-29T20:27:33.703Z,59.16
2022-10-29T20:30:01.751Z,59.23
2022-10-29T20:32:28.556Z,59.11
2022-10-29T20:34:55.227Z,58.65
2022-10-29T20:37:21.882Z,58.78
2022-10-29T20:39:48.493Z,59.01
2022-10-29T20:42:15.148Z,59.39
2022-10-29T20:44:41.843Z,59.02
2022-10-29T20:47:08.546Z,58.96
2022-10-29T20:49:35.241Z,59.05
2022-10-29T20:52:03.665Z,58.99
2022-10-29T20:54:30.415Z,59.41
2022-10-29T20:56:57.149Z,58.99
2022-10-29T20:59:26.694Z,58.97
2022-10-29T21:01:53.842Z,59.31
2022-10-29T21:04:20.755Z,59.52
2022-10-29T21:06:47.523Z,59.16
2022-10-29T21:09:14.254Z,59.14
2022-10-29T21:11:41.575Z,58.91
2022-10-29T21:14:08.183Z,59.06
2022-10-29T21:16:34.815Z,59.75
2022-10-29T21:19:02.270Z,59.76
2022-10-29T21:21:29.663Z,59.69
2022-10-29T21:23:59.597Z,59.99
2022-10-29T21:26:27.754Z,60.55
2022-10-29T21:28:54.920Z,60.68
2022-10-29T21:31:22.523Z,61.43
2022-10-29T21:33:51.146Z,61.18
2022-10-29T21:36:17.886Z,61.69
2022-10-29T21:38:44.619Z,61.62
2022-10-29T21:41:11.337Z,62.18
2022-10-29T21:43:41.074Z,62.05
2022-10-29T21:46:07.852Z,62.48
2022-10-29T21:48:34.528Z,61.84
2022-10-29T21:51:11.879Z,62.42
2022-10-29T21:53:38.513Z,62.36
2022-10-29T21:56:07.055Z,62.07
2022-10-29T21:58:34.407Z,61.90
2022-10-29T22:01:10.600Z,62.10
2022-10-29T22:03:38.597Z,62.40
2022-10-29T22:06:10.828Z,61.96
2022-10-29T22:08:39.341Z,62.18
2022-10-29T22:11:06.647Z,62.22
2022-10-29T22:13:34.479Z,61.82
2022-10-29T22:16:01.962Z,61.78
2022-10-29T22:18:28.875Z,61.69
2022-10-29T22:21:14.872Z,61.92
2022-10-29T22:23:43.599Z,62.26
2022-10-29T22:26:10.574Z,62.23
2022-10-29T22:28:37.185Z,62.28
2022-10-29T22:31:05.196Z,62.39
2022-10-29T22:33:32.353Z,62.49
2022-10-29T22:36:25.981Z,62.16
2022-10-29T22:38:54.375Z,62.63
2022-10-29T22:41:21.457Z,62.43
2022-10-29T22:43:48.379Z,62.41
2022-10-29T22:46:16.677Z,62.55
2022-10-29T22:48:43.715Z,62.43
2022-10-29T22:51:17.730Z,62.52
2022-10-29T22:53:45.129Z,62.26
2022-10-29T22:56:15.596Z,62.35
2022-10-29T22:58:42.315Z,62.70
2022-10-29T23:01:11.308Z,62.26
2022-10-29T23:03:38.804Z,62.62
2022-10-29T23:06:06.876Z,62.46
2022-10-29T23:08:33.590Z,62.83
2022-10-29T23:11:04.900Z,62.92
2022-10-29T23:13:31.567Z,62.93
2022-10-29T23:15:58.188Z,63.27
2022-10-29T23:18:24.800Z,63.23
2022-10-29T23:21:01.703Z,63.18
2022-10-29T23:23:28.732Z,62.92
2022-10-29T23:26:00.593Z,63.15
2022-10-29T23:28:34.987Z,63.38
2022-10-29T23:31:03.620Z,63.72
2022-10-29T23:33:31.436Z,63.82
2022-10-29T23:36:08.083Z,63.57
2022-10-29T23:38:35.319Z,63.95
2022-10-29T23:41:02.677Z,63.81
2022-10-29T23:43:29.875Z,63.56
2022-10-29T23:45:56.788Z,63.93
2022-10-29T23:48:23.806Z,63.83
2022-10-29T23:50:50.540Z,63.83
2022-10-29T23:53:17.511Z,64.33
2022-10-29T23:55:45.131Z,64.60
2022-10-29T23:58:12.457Z,64.29
